createdAt,value
2023-05-14T00:01:07.640Z,7.28
2023-05-14T00:04:12.900Z,7.17
2023-05-14T00:07:18.590Z,6.92
2023-05-14T00:10:26.213Z,6.25
2023-05-14T00:13:32.303Z,6.47
2023-05-14T00:16:38.153Z,6.22
2023-05-14T00:19:46.397Z,5.95
2023-05-14T00:22:51.899Z,5.78
2023-05-14T00:25:57.302Z,5.72
2023-05-14T00:29:02.634Z,5.45
2023-05-14T00:32:09.140Z,5.70
2023-05-14T00:35:16.011Z,5.53
2023-05-14T00:38:22.780Z,5.75
2023-05-14T00:41:28.273Z,5.45
2023-05-14T00:44:34.352Z,6.42
2023-05-14T00:47:45.949Z,5.67
2023-05-14T00:50:51.113Z,5.62
2023-05-14T00:53:57.635Z,6.03
2023-05-14T00:57:03.701Z,5.75
2023-05-14T01:00:10.048Z,5.40
2023-05-14T01:03:14.850Z,5.60
2023-05-14T01:07:08.626Z,6.25
2023-05-14T01:10:28.747Z,6.17
2023-05-14T01:13:59.514Z,5.83
2023-05-14T01:17:08.728Z,5.78
2023-05-14T01:20:15.905Z,6.15
2023-05-14T01:23:21.859Z,6.92
2023-05-14T01:26:28.372Z,6.75
2023-05-14T01:29:38.241Z,6.62
2023-05-14T01:32:45.166Z,5.70
2023-05-14T01:35:51.590Z,6.00
2023-05-14T01:38:58.400Z,5.45
2023-05-14T01:42:04.345Z,5.28
2023-05-14T01:45:11.518Z,5.70
2023-05-14T01:48:19.803Z,6.15
2023-05-14T01:51:25.693Z,6.00
2023-05-14T01:54:30.589Z,5.90
2023-05-14T01:57:36.806Z,5.97
2023-05-14T02:00:41.945Z,5.55
2023-05-14T02:03:49.946Z,6.15
2023-05-14T02:06:55.428Z,10.50
2023-05-14T02:10:01.414Z,14.23
2023-05-14T02:13:07.923Z,24.50
2023-05-14T02:16:14.619Z,17.67
2023-05-14T02:19:21.699Z,10.08
2023-05-14T02:22:26.903Z,7.25
2023-05-14T02:25:31.907Z,5.70
2023-05-14T02:28:37.023Z,5.33
2023-05-14T02:31:44.673Z,5.65
2023-05-14T02:34:50.993Z,5.70
2023-05-14T02:37:57.183Z,5.30
2023-05-14T02:41:02.280Z,5.15
2023-05-14T02:44:08.003Z,5.42
2023-05-14T02:47:13.660Z,5.03
2023-05-14T02:50:20.117Z,5.60
2023-05-14T02:53:24.944Z,5.10
2023-05-14T02:56:30.688Z,5.15
2023-05-14T02:59:39.434Z,5.72
2023-05-14T03:02:46.921Z,4.85
2023-05-14T03:05:54.944Z,4.60
2023-05-14T03:09:01.770Z,5.25
2023-05-14T03:12:07.893Z,5.45
2023-05-14T03:15:14.381Z,5.55
2023-05-14T03:18:20.305Z,5.00
2023-05-14T03:21:25.624Z,4.85
2023-05-14T03:24:31.910Z,5.05
2023-05-14T03:27:37.408Z,4.85
2023-05-14T03:30:44.650Z,5.37
2023-05-14T03:33:51.514Z,4.92
2023-05-14T03:36:57.906Z,5.28
2023-05-14T03:40:03.861Z,5.22
2023-05-14T03:43:09.365Z,5.60
2023-05-14T03:46:15.228Z,5.65
2023-05-14T03:49:21.844Z,5.15
2023-05-14T03:52:27.334Z,5.40
2023-05-14T03:55:37.317Z,4.87
2023-05-14T03:58:43.194Z,4.28
2023-05-14T04:01:48.525Z,4.70
2023-05-14T04:04:54.104Z,4.60
2023-05-14T04:08:05.079Z,4.53
2023-05-14T04:11:11.818Z,4.50
2023-05-14T04:14:20.521Z,4.75
2023-05-14T04:17:25.199Z,5.37
2023-05-14T04:20:30.080Z,5.00
2023-05-14T04:23:38.593Z,4.85
2023-05-14T04:26:43.913Z,4.85
2023-05-14T04:29:49.337Z,4.20
2023-05-14T04:32:55.738Z,4.17
2023-05-14T04:36:02.133Z,4.10
2023-05-14T04:39:07.711Z,3.92
2023-05-14T04:42:14.450Z,4.42
2023-05-14T04:45:21.011Z,4.17
2023-05-14T04:48:25.634Z,4.12
2023-05-14T04:51:32.191Z,4.03
2023-05-14T04:54:39.326Z,3.80
2023-05-14T04:57:44.986Z,3.87
2023-05-14T05:00:51.688Z,4.08
2023-05-14T05:03:58.036Z,4.40
2023-05-14T05:07:05.359Z,3.90
2023-05-14T05:10:13.328Z,3.90
2023-05-14T05:13:19.249Z,3.30
2023-05-14T05:16:26.330Z,3.22
2023-05-14T05:19:43.104Z,3.55
2023-05-14T05:22:41.211Z,3.33
2023-05-14T05:25:46.547Z,3.47
2023-05-14T05:28:52.303Z,3.35
2023-05-14T05:31:57.912Z,3.37
2023-05-14T05:35:03.588Z,3.75
2023-05-14T05:38:08.955Z,3.60
2023-05-14T05:41:15.257Z,3.17
2023-05-14T05:44:21.360Z,3.55
2023-05-14T05:47:28.032Z,3.52
2023-05-14T05:50:33.601Z,3.65
2023-05-14T05:53:40.168Z,3.47
2023-05-14T05:56:45.912Z,3.67
2023-05-14T05:59:51.258Z,3.83
2023-05-14T06:02:57.117Z,4.05
2023-05-14T06:06:03.289Z,3.75
2023-05-14T06:09:13.078Z,3.30
2023-05-14T06:12:20.469Z,3.65
2023-05-14T06:15:27.245Z,3.72
2023-05-14T06:18:32.758Z,3.72
2023-05-14T06:21:39.540Z,3.50
2023-05-14T06:24:45.434Z,3.98
2023-05-14T06:27:52.554Z,3.50
2023-05-14T06:30:57.804Z,3.45
2023-05-14T06:34:03.744Z,3.40
2023-05-14T06:37:10.761Z,3.55
2023-05-14T06:40:16.884Z,3.30
2023-05-14T06:43:24.870Z,3.37
2023-05-14T06:46:31.016Z,3.40
2023-05-14T06:49:36.881Z,3.45
2023-05-14T06:52:43.213Z,3.10
2023-05-14T06:55:50.432Z,3.27
2023-05-14T06:58:57.212Z,3.40
2023-05-14T07:02:03.603Z,3.40
2023-05-14T07:05:10.057Z,3.42
2023-05-14T07:08:17.238Z,3.35
2023-05-14T07:11:23.903Z,3.02
2023-05-14T07:14:32.552Z,3.40
2023-05-14T07:17:38.292Z,2.70
2023-05-14T07:20:44.444Z,2.95
2023-05-14T07:23:51.050Z,2.80
2023-05-14T07:26:55.876Z,3.70
2023-05-14T07:30:02.168Z,3.25
2023-05-14T07:33:08.816Z,3.33
2023-05-14T07:36:15.671Z,3.20
2023-05-14T07:39:21.221Z,3.47
2023-05-14T07:42:35.865Z,3.05
2023-05-14T07:45:34.865Z,3.25
2023-05-14T07:48:40.806Z,3.17
2023-05-14T07:51:48.568Z,2.75
2023-05-14T07:54:56.447Z,3.15
2023-05-14T07:58:04.329Z,2.90
2023-05-14T08:01:11.197Z,2.92
2023-05-14T08:04:18.365Z,3.45
2023-05-14T08:07:23.333Z,3.10
2023-05-14T08:10:29.740Z,3.35
2023-05-14T08:13:35.871Z,2.70
2023-05-14T08:16:41.000Z,2.92
2023-05-14T08:19:48.947Z,4.12
2023-05-14T08:22:54.810Z,3.35
2023-05-14T08:26:00.948Z,2.80
2023-05-14T08:29:10.785Z,2.92
2023-05-14T08:32:23.498Z,4.30
2023-05-14T08:35:24.393Z,3.10
2023-05-14T08:38:30.013Z,2.75
2023-05-14T08:41:37.413Z,3.27
2023-05-14T08:44:58.191Z,2.90
2023-05-14T08:48:08.192Z,2.95
2023-05-14T08:51:13.365Z,3.30
2023-05-14T08:54:23.359Z,3.00
2023-05-14T08:57:32.008Z,2.87
2023-05-14T09:00:37.929Z,3.52
2023-05-14T09:03:43.361Z,2.75
2023-05-14T09:06:51.570Z,3.58
2023-05-14T09:09:58.521Z,5.87
2023-05-14T09:13:03.583Z,4.92
2023-05-14T09:16:09.679Z,10.35
2023-05-14T09:19:16.365Z,3.72
2023-05-14T09:22:28.988Z,4.03
2023-05-14T09:25:34.374Z,5.75
2023-05-14T09:28:41.221Z,3.10
2023-05-14T09:31:47.961Z,4.90
2023-05-14T09:34:54.391Z,3.77
2023-05-14T09:38:01.714Z,2.60
2023-05-14T09:41:07.626Z,2.20
2023-05-14T09:44:12.340Z,2.92
2023-05-14T09:47:17.507Z,2.35
2023-05-14T09:50:25.631Z,2.85
2023-05-14T09:53:34.623Z,2.80
2023-05-14T09:56:41.492Z,2.40
2023-05-14T09:59:48.733Z,2.50
2023-05-14T10:02:55.884Z,2.22
2023-05-14T10:06:03.534Z,2.77
2023-05-14T10:09:14.164Z,2.00
2023-05-14T10:12:20.575Z,2.35
2023-05-14T10:15:30.472Z,2.10
2023-05-14T10:18:38.377Z,2.30
2023-05-14T10:21:44.668Z,3.15
2023-05-14T10:24:49.861Z,2.67
2023-05-14T10:27:55.106Z,3.37
2023-05-14T10:31:02.116Z,3.50
2023-05-14T10:34:08.596Z,3.70
2023-05-14T10:37:17.933Z,3.10
2023-05-14T10:40:27.449Z,3.42
2023-05-14T10:43:33.260Z,2.95
2023-05-14T10:46:39.145Z,3.10
2023-05-14T10:49:45.641Z,3.10
2023-05-14T10:52:51.360Z,3.15
2023-05-14T10:55:58.579Z,3.20
2023-05-14T10:59:05.000Z,2.70
2023-05-14T11:02:14.957Z,5.85
2023-05-14T11:05:25.620Z,3.92
2023-05-14T11:08:32.109Z,4.15
2023-05-14T11:11:37.866Z,3.17
2023-05-14T11:14:43.450Z,2.90
2023-05-14T11:17:48.988Z,3.00
2023-05-14T11:20:54.763Z,2.98
2023-05-14T11:24:04.041Z,2.62
2023-05-14T11:27:08.920Z,2.95
2023-05-14T11:30:14.076Z,2.33
2023-05-14T11:33:20.665Z,2.52
2023-05-14T11:36:26.140Z,2.95
2023-05-14T11:39:34.494Z,2.52
2023-05-14T11:42:42.754Z,2.35
2023-05-14T11:45:50.312Z,3.02
2023-05-14T11:48:56.647Z,2.90
2023-05-14T11:52:02.055Z,3.20
2023-05-14T11:55:08.080Z,5.17
2023-05-14T11:58:13.475Z,15.95
2023-05-14T12:01:20.732Z,8.35
2023-05-14T12:04:31.027Z,4.90
2023-05-14T12:07:38.022Z,3.20
2023-05-14T12:10:43.193Z,2.62
2023-05-14T12:13:51.075Z,2.90
2023-05-14T12:16:57.845Z,3.33
2023-05-14T12:20:04.642Z,2.52
2023-05-14T12:23:10.292Z,2.80
2023-05-14T12:26:23.704Z,2.80
2023-05-14T12:32:34.989Z,2.90
2023-05-14T12:35:39.945Z,2.40
2023-05-14T12:38:47.605Z,2.62
2023-05-14T12:41:52.809Z,3.65
2023-05-14T12:44:59.790Z,2.80
2023-05-14T12:48:05.194Z,2.42
2023-05-14T12:51:10.977Z,10.13
2023-05-14T12:54:18.162Z,3.75
2023-05-14T12:57:24.127Z,2.75
2023-05-14T13:00:31.148Z,2.40
2023-05-14T13:03:37.394Z,2.52
2023-05-14T13:06:46.236Z,2.10
2023-05-14T13:09:52.557Z,2.42
2023-05-14T13:12:59.539Z,2.58
2023-05-14T13:16:05.902Z,2.20
2023-05-14T13:19:13.352Z,2.55
2023-05-14T13:22:18.322Z,2.10
2023-05-14T13:25:24.849Z,2.20
2023-05-14T13:28:30.678Z,2.00
2023-05-14T13:31:36.959Z,2.15
2023-05-14T13:34:43.469Z,2.10
2023-05-14T13:37:48.273Z,2.67
2023-05-14T13:40:53.693Z,2.75
2023-05-14T13:43:59.744Z,2.62
2023-05-14T13:47:06.560Z,2.67
2023-05-14T13:50:13.189Z,2.12
2023-05-14T13:53:18.833Z,3.22
2023-05-14T13:56:26.614Z,2.20
2023-05-14T13:59:33.152Z,2.50
2023-05-14T14:02:38.663Z,2.10
2023-05-14T14:05:44.964Z,2.58
2023-05-14T14:08:51.325Z,2.55
2023-05-14T14:11:57.896Z,2.47
2023-05-14T14:15:06.197Z,1.85
2023-05-14T14:18:11.770Z,2.20
2023-05-14T14:21:18.031Z,2.60
2023-05-14T14:24:24.802Z,1.95
2023-05-14T14:27:31.152Z,2.30
2023-05-14T14:30:36.453Z,2.35
2023-05-14T14:33:42.527Z,2.65
2023-05-14T14:36:48.034Z,2.77
2023-05-14T14:39:54.764Z,2.30
2023-05-14T14:43:00.433Z,3.22
2023-05-14T14:46:05.936Z,3.45
2023-05-14T14:49:12.581Z,2.55
2023-05-14T14:52:18.843Z,2.30
2023-05-14T14:55:25.006Z,2.67
2023-05-14T14:58:30.983Z,2.25
2023-05-14T15:01:36.746Z,2.40
2023-05-14T15:04:43.737Z,2.27
2023-05-14T15:07:51.572Z,1.90
2023-05-14T15:11:00.119Z,2.00
2023-05-14T15:14:06.076Z,2.10
2023-05-14T15:17:12.751Z,2.42
2023-05-14T15:20:11.259Z,2.58
2023-05-14T15:22:58.656Z,3.20
2023-05-14T15:25:50.751Z,3.22
2023-05-14T15:28:37.954Z,3.42
2023-05-14T15:31:32.919Z,3.05
2023-05-14T15:34:25.676Z,2.72
2023-05-14T15:37:31.648Z,3.00
2023-05-14T15:40:38.000Z,2.50
2023-05-14T15:43:43.421Z,2.60
2023-05-14T15:46:49.879Z,2.25
2023-05-14T15:49:55.978Z,2.47
2023-05-14T15:53:02.525Z,2.50
2023-05-14T15:56:11.318Z,2.77
2023-05-14T15:59:17.280Z,3.15
2023-05-14T16:02:23.162Z,3.15
2023-05-14T16:05:29.190Z,2.70
2023-05-14T16:08:33.930Z,2.52
2023-05-14T16:11:39.801Z,2.37
2023-05-14T16:14:44.982Z,2.50
2023-05-14T16:17:51.615Z,2.27
2023-05-14T16:20:56.248Z,2.67
2023-05-14T16:24:03.283Z,2.50
2023-05-14T16:27:08.131Z,2.42
2023-05-14T16:30:14.492Z,2.30
2023-05-14T16:33:20.535Z,2.30
2023-05-14T16:36:27.348Z,2.30
2023-05-14T16:39:33.169Z,2.55
2023-05-14T16:42:39.229Z,4.85
2023-05-14T16:45:47.036Z,4.35
2023-05-14T16:48:53.089Z,3.52
2023-05-14T16:51:59.184Z,2.98
2023-05-14T16:55:04.312Z,2.95
2023-05-14T16:58:11.457Z,2.70
2023-05-14T17:01:18.233Z,3.20
2023-05-14T17:04:25.963Z,3.60
2023-05-14T17:07:32.318Z,4.35
2023-05-14T17:10:39.312Z,3.45
2023-05-14T17:13:45.138Z,3.27
2023-05-14T17:16:52.572Z,3.77
2023-05-14T17:19:58.326Z,3.45
2023-05-14T17:23:03.872Z,3.42
2023-05-14T17:26:09.887Z,3.55
2023-05-14T17:29:10.143Z,3.90
2023-05-14T17:32:16.890Z,5.25
2023-05-14T17:35:23.481Z,4.55
2023-05-14T17:38:32.084Z,4.87
2023-05-14T17:41:38.429Z,4.85
2023-05-14T17:44:45.004Z,5.05
2023-05-14T17:47:52.239Z,5.85
2023-05-14T17:50:59.012Z,5.92
2023-05-14T17:54:05.068Z,6.20
2023-05-14T17:57:11.802Z,5.75
2023-05-14T18:00:18.398Z,6.03
2023-05-14T18:03:25.304Z,7.28
2023-05-14T18:06:30.979Z,8.55
2023-05-14T18:09:36.356Z,9.45
2023-05-14T18:12:42.454Z,14.40
2023-05-14T18:15:48.514Z,14.63
2023-05-14T18:18:56.361Z,13.08
2023-05-14T18:22:02.625Z,13.25
2023-05-14T18:25:10.559Z,12.23
2023-05-14T18:28:15.736Z,11.03
2023-05-14T18:31:22.752Z,12.23
2023-05-14T18:34:29.555Z,10.72
2023-05-14T18:37:35.680Z,10.43
2023-05-14T18:40:41.491Z,12.60
2023-05-14T18:43:47.514Z,10.58
2023-05-14T18:46:54.766Z,11.57
2023-05-14T18:50:02.282Z,11.78
2023-05-14T18:53:09.226Z,11.00
2023-05-14T18:56:16.157Z,11.90
2023-05-14T18:59:22.146Z,12.05
2023-05-14T19:02:27.305Z,13.75
2023-05-14T19:05:33.167Z,15.65
2023-05-14T19:08:39.403Z,18.73
2023-05-14T19:11:49.379Z,21.02
2023-05-14T19:14:54.466Z,22.73
2023-05-14T19:18:01.331Z,22.00
2023-05-14T19:21:09.059Z,20.57
2023-05-14T19:24:15.472Z,20.62
2023-05-14T19:27:23.760Z,20.27
2023-05-14T19:30:30.537Z,19.15
2023-05-14T19:33:36.518Z,19.37
2023-05-14T19:36:43.262Z,20.05
2023-05-14T19:39:49.998Z,20.00
2023-05-14T19:42:55.489Z,19.12
2023-05-14T19:46:01.645Z,18.98
2023-05-14T19:49:08.869Z,19.60
2023-05-14T19:52:15.587Z,17.00
2023-05-14T19:55:23.519Z,15.43
2023-05-14T19:58:32.002Z,15.63
2023-05-14T20:01:41.170Z,11.33
2023-05-14T20:04:47.800Z,10.08
2023-05-14T20:07:55.638Z,9.23
2023-05-14T20:11:04.152Z,8.60
2023-05-14T20:14:10.582Z,8.63
2023-05-14T20:17:17.909Z,7.90
2023-05-14T20:20:25.811Z,8.50
2023-05-14T20:23:33.683Z,7.85
2023-05-14T20:26:39.927Z,8.65
2023-05-14T20:29:46.460Z,9.38
2023-05-14T20:32:53.733Z,8.60
2023-05-14T20:36:01.105Z,7.90
2023-05-14T20:39:08.498Z,7.83
2023-05-14T20:42:14.238Z,8.23
2023-05-14T20:45:21.969Z,7.62
2023-05-14T20:48:28.985Z,8.15
2023-05-14T20:51:35.884Z,7.97
2023-05-14T20:54:41.602Z,8.33
2023-05-14T20:57:47.560Z,8.03
2023-05-14T21:00:54.548Z,8.25
2023-05-14T21:04:01.099Z,7.53
2023-05-14T21:07:09.806Z,8.23
2023-05-14T21:10:15.860Z,7.67
2023-05-14T21:13:21.659Z,8.63
2023-05-14T21:16:27.483Z,8.13
2023-05-14T21:19:33.660Z,8.25
2023-05-14T21:22:41.532Z,8.80
2023-05-14T21:25:46.966Z,8.45
2023-05-14T21:28:53.251Z,8.53
2023-05-14T21:32:00.564Z,8.43
2023-05-14T21:35:07.403Z,9.05
2023-05-14T21:38:12.508Z,8.68
2023-05-14T21:41:17.877Z,8.33
2023-05-14T21:44:23.662Z,8.50
2023-05-14T21:47:28.858Z,9.23
2023-05-14T21:50:35.883Z,8.80
2023-05-14T21:53:42.016Z,8.18
2023-05-14T21:56:50.070Z,8.03
2023-05-14T21:59:55.703Z,8.50
2023-05-14T22:03:03.193Z,8.50
2023-05-14T22:06:11.249Z,8.88
2023-05-14T22:09:18.190Z,8.73
2023-05-14T22:12:23.950Z,8.35
2023-05-14T22:15:29.662Z,8.35
2023-05-14T22:18:36.451Z,8.78
2023-05-14T22:21:42.638Z,77.10
2023-05-14T22:24:48.372Z,19.27
2023-05-14T22:27:54.321Z,53.48
2023-05-14T22:30:59.927Z,49.73
2023-05-14T22:34:05.665Z,40.70
2023-05-14T22:37:11.418Z,41.42
2023-05-14T22:40:17.084Z,15.63
2023-05-14T22:43:23.380Z,11.65
2023-05-14T22:46:29.521Z,10.00
2023-05-14T22:49:35.264Z,11.97
2023-05-14T22:52:41.462Z,12.45
2023-05-14T22:55:46.932Z,13.03
2023-05-14T22:58:55.021Z,13.68
2023-05-14T23:02:00.309Z,10.48
2023-05-14T23:05:06.175Z,10.23
2023-05-14T23:08:11.504Z,11.12
2023-05-14T23:11:17.795Z,10.78
2023-05-14T23:14:24.910Z,9.93
2023-05-14T23:17:31.804Z,8.03
2023-05-14T23:20:36.883Z,8.75
2023-05-14T23:23:42.162Z,11.05
2023-05-14T23:26:47.441Z,8.83
2023-05-14T23:29:52.586Z,9.25
2023-05-14T23:33:00.288Z,9.58
2023-05-14T23:36:06.552Z,9.03
2023-05-14T23:39:13.600Z,8.60
2023-05-14T23:42:18.582Z,8.30
2023-05-14T23:45:25.301Z,7.70
2023-05-14T23:48:32.138Z,8.28
2023-05-14T23:51:38.661Z,8.55
2023-05-14T23:54:45.114Z,7.60
2023-05-14T23:57:53.865Z,8.23
